sensor_id;sensor_type;location;lat;lon;timestamp;temperature;humidity
70851;DHT22;58475;49.662;9.636;2023-08-07T00:01:29;13.24;90.58
70851;DHT22;58475;49.662;9.636;2023-08-07T00:03:54;13.18;90.88
70851;DHT22;58475;49.662;9.636;2023-08-07T00:06:20;13.21;91.92
70851;DHT22;58475;49.662;9.636;2023-08-07T00:08:45;13.32;90.88
70851;DHT22;58475;49.662;9.636;2023-08-07T00:11:10;13.24;90.14
70851;DHT22;58475;49.662;9.636;2023-08-07T00:13:36;13.28;90.51
70851;DHT22;58475;49.662;9.636;2023-08-07T00:16:02;13.20;90.35
70851;DHT22;58475;49.662;9.636;2023-08-07T00:18:29;13.27;89.89
70851;DHT22;58475;49.662;9.636;2023-08-07T00:20:54;13.31;90.17
70851;DHT22;58475;49.662;9.636;2023-08-07T00:23:20;13.27;91.07
70851;DHT22;58475;49.662;9.636;2023-08-07T00:25:45;13.27;90.55
70851;DHT22;58475;49.662;9.636;2023-08-07T00:28:11;13.17;90.96
70851;DHT22;58475;49.662;9.636;2023-08-07T00:30:36;13.14;90.89
70851;DHT22;58475;49.662;9.636;2023-08-07T00:33:01;13.14;90.67
70851;DHT22;58475;49.662;9.636;2023-08-07T00:35:28;13.11;90.56
70851;DHT22;58475;49.662;9.636;2023-08-07T00:37:53;13.15;90.59
70851;DHT22;58475;49.662;9.636;2023-08-07T00:40:18;13.18;90.64
70851;DHT22;58475;49.662;9.636;2023-08-07T00:42:44;13.15;90.28
70851;DHT22;58475;49.662;9.636;2023-08-07T00:45:10;13.10;90.04
70851;DHT22;58475;49.662;9.636;2023-08-07T00:47:36;13.10;90.82
70851;DHT22;58475;49.662;9.636;2023-08-07T00:50:03;13.12;91.61
70851;DHT22;58475;49.662;9.636;2023-08-07T00:52:30;13.11;90.87
70851;DHT22;58475;49.662;9.636;2023-08-07T00:54:55;13.10;90.94
70851;DHT22;58475;49.662;9.636;2023-08-07T00:57:21;13.07;91.05
70851;DHT22;58475;49.662;9.636;2023-08-07T00:59:48;13.04;90.98
70851;DHT22;58475;49.662;9.636;2023-08-07T01:02:14;13.12;90.07
70851;DHT22;58475;49.662;9.636;2023-08-07T01:04:40;13.08;90.55
70851;DHT22;58475;49.662;9.636;2023-08-07T01:07:06;13.03;91.99
70851;DHT22;58475;49.662;9.636;2023-08-07T01:09:32;13.03;89.38
70851;DHT22;58475;49.662;9.636;2023-08-07T01:12:17;13.06;90.68
70851;DHT22;58475;49.662;9.636;2023-08-07T01:15:02;13.10;90.45
70851;DHT22;58475;49.662;9.636;2023-08-07T01:17:29;13.01;91.00
70851;DHT22;58475;49.662;9.636;2023-08-07T01:19:55;13.08;91.23
70851;DHT22;58475;49.662;9.636;2023-08-07T01:22:22;13.10;91.51
70851;DHT22;58475;49.662;9.636;2023-08-07T01:24:49;13.04;90.40
70851;DHT22;58475;49.662;9.636;2023-08-07T01:27:26;12.97;90.96
70851;DHT22;58475;49.662;9.636;2023-08-07T01:35:38;13.06;90.55
70851;DHT22;58475;49.662;9.636;2023-08-07T01:38:05;13.08;90.45
70851;DHT22;58475;49.662;9.636;2023-08-07T01:40:30;13.07;89.81
70851;DHT22;58475;49.662;9.636;2023-08-07T01:42:56;12.97;90.33
70851;DHT22;58475;49.662;9.636;2023-08-07T01:45:26;12.94;90.79
70851;DHT22;58475;49.662;9.636;2023-08-07T01:47:52;12.94;90.02
70851;DHT22;58475;49.662;9.636;2023-08-07T01:50:22;12.93;90.27
70851;DHT22;58475;49.662;9.636;2023-08-07T01:52:48;12.94;90.88
70851;DHT22;58475;49.662;9.636;2023-08-07T01:55:15;12.96;90.26
70851;DHT22;58475;49.662;9.636;2023-08-07T01:57:42;12.96;89.81
70851;DHT22;58475;49.662;9.636;2023-08-07T02:00:08;12.97;89.64
70851;DHT22;58475;49.662;9.636;2023-08-07T02:02:40;12.99;90.23
70851;DHT22;58475;49.662;9.636;2023-08-07T02:05:06;13.00;90.16
70851;DHT22;58475;49.662;9.636;2023-08-07T02:07:31;12.94;91.10
70851;DHT22;58475;49.662;9.636;2023-08-07T02:09:57;12.99;90.05
70851;DHT22;58475;49.662;9.636;2023-08-07T02:12:23;12.89;89.65
70851;DHT22;58475;49.662;9.636;2023-08-07T02:14:49;12.87;90.46
70851;DHT22;58475;49.662;9.636;2023-08-07T02:17:15;12.93;90.31
70851;DHT22;58475;49.662;9.636;2023-08-07T02:19:40;12.89;90.33
70851;DHT22;58475;49.662;9.636;2023-08-07T02:22:06;12.89;90.46
70851;DHT22;58475;49.662;9.636;2023-08-07T02:24:31;12.94;90.33
70851;DHT22;58475;49.662;9.636;2023-08-07T02:26:56;12.96;89.97
70851;DHT22;58475;49.662;9.636;2023-08-07T02:29:22;12.93;89.50
70851;DHT22;58475;49.662;9.636;2023-08-07T02:31:47;12.90;89.60
70851;DHT22;58475;49.662;9.636;2023-08-07T02:34:14;13.03;89.61
70851;DHT22;58475;49.662;9.636;2023-08-07T02:36:39;12.89;89.75
70851;DHT22;58475;49.662;9.636;2023-08-07T02:39:04;12.83;89.41
70851;DHT22;58475;49.662;9.636;2023-08-07T02:41:30;12.86;89.89
70851;DHT22;58475;49.662;9.636;2023-08-07T02:43:57;12.81;90.02
70851;DHT22;58475;49.662;9.636;2023-08-07T02:46:22;12.80;90.01
70851;DHT22;58475;49.662;9.636;2023-08-07T02:48:48;12.76;91.00
70851;DHT22;58475;49.662;9.636;2023-08-07T02:51:13;12.80;89.61
70851;DHT22;58475;49.662;9.636;2023-08-07T02:53:38;12.73;89.84
70851;DHT22;58475;49.662;9.636;2023-08-07T02:56:04;12.72;89.49
70851;DHT22;58475;49.662;9.636;2023-08-07T02:58:29;12.73;90.18
70851;DHT22;58475;49.662;9.636;2023-08-07T03:00:55;12.76;90.71
70851;DHT22;58475;49.662;9.636;2023-08-07T03:03:20;12.77;90.35
70851;DHT22;58475;49.662;9.636;2023-08-07T03:05:52;12.70;89.54
70851;DHT22;58475;49.662;9.636;2023-08-07T03:08:17;12.75;89.57
70851;DHT22;58475;49.662;9.636;2023-08-07T03:10:53;12.73;88.70
70851;DHT22;58475;49.662;9.636;2023-08-07T03:13:19;12.75;89.08
70851;DHT22;58475;49.662;9.636;2023-08-07T03:15:44;12.72;88.99
70851;DHT22;58475;49.662;9.636;2023-08-07T03:18:10;12.76;88.70
70851;DHT22;58475;49.662;9.636;2023-08-07T03:20:38;12.75;89.93
70851;DHT22;58475;49.662;9.636;2023-08-07T03:23:04;12.80;88.41
70851;DHT22;58475;49.662;9.636;2023-08-07T03:25:29;12.73;88.23
70851;DHT22;58475;49.662;9.636;2023-08-07T03:27:55;12.77;88.14
70851;DHT22;58475;49.662;9.636;2023-08-07T03:30:21;12.81;89.28
70851;DHT22;58475;49.662;9.636;2023-08-07T03:32:47;12.80;88.11
70851;DHT22;58475;49.662;9.636;2023-08-07T03:35:13;12.80;88.33
70851;DHT22;58475;49.662;9.636;2023-08-07T03:37:40;12.81;88.07
70851;DHT22;58475;49.662;9.636;2023-08-07T03:40:06;12.81;88.40
70851;DHT22;58475;49.662;9.636;2023-08-07T03:42:32;12.80;87.65
70851;DHT22;58475;49.662;9.636;2023-08-07T03:44:57;12.87;88.35
70851;DHT22;58475;49.662;9.636;2023-08-07T03:47:23;12.86;89.10
70851;DHT22;58475;49.662;9.636;2023-08-07T03:49:49;12.79;89.35
70851;DHT22;58475;49.662;9.636;2023-08-07T03:52:15;12.76;88.13
70851;DHT22;58475;49.662;9.636;2023-08-07T03:54:40;12.81;87.85
70851;DHT22;58475;49.662;9.636;2023-08-07T03:57:06;12.79;88.41
70851;DHT22;58475;49.662;9.636;2023-08-07T03:59:33;12.83;88.80
70851;DHT22;58475;49.662;9.636;2023-08-07T04:01:59;12.69;87.89
70851;DHT22;58475;49.662;9.636;2023-08-07T04:04:24;12.73;88.53
70851;DHT22;58475;49.662;9.636;2023-08-07T04:06:49;12.77;88.04
70851;DHT22;58475;49.662;9.636;2023-08-07T04:09:15;12.81;87.31
70851;DHT22;58475;49.662;9.636;2023-08-07T04:11:42;12.84;86.94
70851;DHT22;58475;49.662;9.636;2023-08-07T04:14:07;12.81;86.96
70851;DHT22;58475;49.662;9.636;2023-08-07T04:16:32;12.76;88.71
70851;DHT22;58475;49.662;9.636;2023-08-07T04:18:58;12.77;88.60
70851;DHT22;58475;49.662;9.636;2023-08-07T04:21:23;12.81;88.20
70851;DHT22;58475;49.662;9.636;2023-08-07T04:23:49;12.84;87.66
70851;DHT22;58475;49.662;9.636;2023-08-07T04:26:14;12.80;87.61
70851;DHT22;58475;49.662;9.636;2023-08-07T04:28:40;12.79;88.23
70851;DHT22;58475;49.662;9.636;2023-08-07T04:31:05;12.77;87.38
70851;DHT22;58475;49.662;9.636;2023-08-07T04:33:30;12.76;87.77
70851;DHT22;58475;49.662;9.636;2023-08-07T04:35:57;12.81;87.05
70851;DHT22;58475;49.662;9.636;2023-08-07T04:38:22;12.79;87.78
70851;DHT22;58475;49.662;9.636;2023-08-07T04:40:49;12.81;87.93
70851;DHT22;58475;49.662;9.636;2023-08-07T04:43:15;12.76;87.29
70851;DHT22;58475;49.662;9.636;2023-08-07T04:45:41;12.70;87.98
70851;DHT22;58475;49.662;9.636;2023-08-07T04:48:07;12.76;87.13
70851;DHT22;58475;49.662;9.636;2023-08-07T04:50:33;12.75;87.91
70851;DHT22;58475;49.662;9.636;2023-08-07T04:52:58;12.75;87.86
70851;DHT22;58475;49.662;9.636;2023-08-07T04:55:23;12.66;87.77
70851;DHT22;58475;49.662;9.636;2023-08-07T04:57:49;12.69;88.05
70851;DHT22;58475;49.662;9.636;2023-08-07T05:00:16;12.69;88.92
70851;DHT22;58475;49.662;9.636;2023-08-07T05:02:42;12.70;88.43
70851;DHT22;58475;49.662;9.636;2023-08-07T05:05:08;12.67;88.87
70851;DHT22;58475;49.662;9.636;2023-08-07T05:07:34;12.75;88.45
70851;DHT22;58475;49.662;9.636;2023-08-07T05:10:04;12.70;88.52
70851;DHT22;58475;49.662;9.636;2023-08-07T05:12:29;12.81;89.51
70851;DHT22;58475;49.662;9.636;2023-08-07T05:14:55;12.75;88.42
70851;DHT22;58475;49.662;9.636;2023-08-07T05:17:20;12.76;88.68
70851;DHT22;58475;49.662;9.636;2023-08-07T05:19:45;12.75;89.01
70851;DHT22;58475;49.662;9.636;2023-08-07T05:22:11;12.86;88.64
70851;DHT22;58475;49.662;9.636;2023-08-07T05:24:36;12.86;88.25
70851;DHT22;58475;49.662;9.636;2023-08-07T05:27:10;12.93;88.89
70851;DHT22;58475;49.662;9.636;2023-08-07T05:29:36;12.81;88.76
70851;DHT22;58475;49.662;9.636;2023-08-07T05:32:13;12.81;88.62
70851;DHT22;58475;49.662;9.636;2023-08-07T05:34:40;12.81;88.97
70851;DHT22;58475;49.662;9.636;2023-08-07T05:37:06;12.79;88.47
70851;DHT22;58475;49.662;9.636;2023-08-07T05:39:32;12.83;88.86
70851;DHT22;58475;49.662;9.636;2023-08-07T05:41:57;12.96;88.60
70851;DHT22;58475;49.662;9.636;2023-08-07T05:44:26;13.06;87.42
70851;DHT22;58475;49.662;9.636;2023-08-07T05:46:51;13.07;88.20
70851;DHT22;58475;49.662;9.636;2023-08-07T05:49:17;13.24;88.16
70851;DHT22;58475;49.662;9.636;2023-08-07T05:51:43;13.34;87.31
70851;DHT22;58475;49.662;9.636;2023-08-07T05:54:08;13.48;87.65
70851;DHT22;58475;49.662;9.636;2023-08-07T05:56:34;13.37;85.91
70851;DHT22;58475;49.662;9.636;2023-08-07T05:58:59;13.42;86.63
70851;DHT22;58475;49.662;9.636;2023-08-07T06:01:25;13.37;86.10
70851;DHT22;58475;49.662;9.636;2023-08-07T06:03:58;13.48;87.01
70851;DHT22;58475;49.662;9.636;2023-08-07T06:06:24;13.57;86.17
70851;DHT22;58475;49.662;9.636;2023-08-07T06:08:56;13.38;84.70
70851;DHT22;58475;49.662;9.636;2023-08-07T06:11:21;13.44;86.15
70851;DHT22;58475;49.662;9.636;2023-08-07T06:13:47;13.47;84.99
70851;DHT22;58475;49.662;9.636;2023-08-07T06:16:12;13.44;86.27
70851;DHT22;58475;49.662;9.636;2023-08-07T06:18:37;13.27;85.58
70851;DHT22;58475;49.662;9.636;2023-08-07T06:21:03;13.28;85.54
70851;DHT22;58475;49.662;9.636;2023-08-07T06:23:32;13.22;85.68
70851;DHT22;58475;49.662;9.636;2023-08-07T06:25:57;13.28;85.73
70851;DHT22;58475;49.662;9.636;2023-08-07T06:28:22;13.37;84.70
70851;DHT22;58475;49.662;9.636;2023-08-07T06:30:48;13.38;85.12
70851;DHT22;58475;49.662;9.636;2023-08-07T06:33:13;13.47;85.27
70851;DHT22;58475;49.662;9.636;2023-08-07T06:35:39;13.72;86.03
70851;DHT22;58475;49.662;9.636;2023-08-07T06:38:05;13.70;85.90
70851;DHT22;58475;49.662;9.636;2023-08-07T06:40:30;13.89;86.01
70851;DHT22;58475;49.662;9.636;2023-08-07T06:42:56;13.86;84.56
70851;DHT22;58475;49.662;9.636;2023-08-07T06:45:21;13.85;84.73
70851;DHT22;58475;49.662;9.636;2023-08-07T06:47:46;13.76;84.58
70851;DHT22;58475;49.662;9.636;2023-08-07T06:50:13;13.66;84.86
70851;DHT22;58475;49.662;9.636;2023-08-07T06:52:38;13.90;85.54
70851;DHT22;58475;49.662;9.636;2023-08-07T06:55:04;14.13;84.51
70851;DHT22;58475;49.662;9.636;2023-08-07T06:57:30;14.09;83.20
70851;DHT22;58475;49.662;9.636;2023-08-07T06:59:55;14.19;83.35
70851;DHT22;58475;49.662;9.636;2023-08-07T07:02:20;14.14;83.55
70851;DHT22;58475;49.662;9.636;2023-08-07T07:04:46;14.16;83.38
70851;DHT22;58475;49.662;9.636;2023-08-07T07:07:11;14.10;83.15
70851;DHT22;58475;49.662;9.636;2023-08-07T07:09:37;14.10;82.84
70851;DHT22;58475;49.662;9.636;2023-08-07T07:12:02;14.06;83.65
70851;DHT22;58475;49.662;9.636;2023-08-07T07:14:28;14.10;83.13
70851;DHT22;58475;49.662;9.636;2023-08-07T07:16:53;14.16;82.76
70851;DHT22;58475;49.662;9.636;2023-08-07T07:19:18;14.21;83.02
70851;DHT22;58475;49.662;9.636;2023-08-07T07:21:44;14.41;83.65
70851;DHT22;58475;49.662;9.636;2023-08-07T07:24:09;14.42;82.73
70851;DHT22;58475;49.662;9.636;2023-08-07T07:26:35;14.30;82.74
70851;DHT22;58475;49.662;9.636;2023-08-07T07:29:00;14.64;83.17
70851;DHT22;58475;49.662;9.636;2023-08-07T07:31:26;14.71;81.72
70851;DHT22;58475;49.662;9.636;2023-08-07T07:33:51;14.68;83.56
70851;DHT22;58475;49.662;9.636;2023-08-07T07:36:17;14.77;81.76
70851;DHT22;58475;49.662;9.636;2023-08-07T07:38:44;14.56;81.79
70851;DHT22;58475;49.662;9.636;2023-08-07T07:41:10;14.26;82.80
70851;DHT22;58475;49.662;9.636;2023-08-07T07:43:37;14.33;82.81
70851;DHT22;58475;49.662;9.636;2023-08-07T07:46:03;14.26;82.44
70851;DHT22;58475;49.662;9.636;2023-08-07T07:48:28;14.42;84.24
70851;DHT22;58475;49.662;9.636;2023-08-07T07:51:03;14.72;81.84
70851;DHT22;58475;49.662;9.636;2023-08-07T07:53:29;14.56;81.99
70851;DHT22;58475;49.662;9.636;2023-08-07T07:55:54;14.38;82.72
70851;DHT22;58475;49.662;9.636;2023-08-07T07:58:20;14.60;82.86
70851;DHT22;58475;49.662;9.636;2023-08-07T08:00:46;14.24;83.17
70851;DHT22;58475;49.662;9.636;2023-08-07T08:03:11;14.14;82.81
70851;DHT22;58475;49.662;9.636;2023-08-07T08:05:37;14.06;83.77
70851;DHT22;58475;49.662;9.636;2023-08-07T08:08:03;13.99;85.18
70851;DHT22;58475;49.662;9.636;2023-08-07T08:10:29;14.17;84.16
70851;DHT22;58475;49.662;9.636;2023-08-07T08:12:55;14.23;83.66
70851;DHT22;58475;49.662;9.636;2023-08-07T08:15:21;14.33;84.76
70851;DHT22;58475;49.662;9.636;2023-08-07T08:17:46;14.63;85.16
70851;DHT22;58475;49.662;9.636;2023-08-07T08:20:12;14.20;83.92
70851;DHT22;58475;49.662;9.636;2023-08-07T08:22:41;14.24;84.43
70851;DHT22;58475;49.662;9.636;2023-08-07T08:25:07;14.36;83.71
70851;DHT22;58475;49.662;9.636;2023-08-07T08:27:34;14.48;83.26
70851;DHT22;58475;49.662;9.636;2023-08-07T08:29:59;14.75;84.57
70851;DHT22;58475;49.662;9.636;2023-08-07T08:32:25;14.74;84.17
70851;DHT22;58475;49.662;9.636;2023-08-07T08:34:50;14.57;83.28
70851;DHT22;58475;49.662;9.636;2023-08-07T08:37:15;14.45;83.67
70851;DHT22;58475;49.662;9.636;2023-08-07T08:39:41;14.45;83.93
70851;DHT22;58475;49.662;9.636;2023-08-07T08:42:09;14.82;84.73
70851;DHT22;58475;49.662;9.636;2023-08-07T08:44:36;14.77;83.46
70851;DHT22;58475;49.662;9.636;2023-08-07T08:47:04;14.61;82.84
70851;DHT22;58475;49.662;9.636;2023-08-07T08:49:35;14.79;82.20
70851;DHT22;58475;49.662;9.636;2023-08-07T08:52:02;14.82;82.05
70851;DHT22;58475;49.662;9.636;2023-08-07T08:54:28;15.15;81.64
70851;DHT22;58475;49.662;9.636;2023-08-07T08:56:55;14.96;81.09
70851;DHT22;58475;49.662;9.636;2023-08-07T08:59:22;14.95;82.11
70851;DHT22;58475;49.662;9.636;2023-08-07T09:01:48;14.96;81.31
70851;DHT22;58475;49.662;9.636;2023-08-07T09:04:15;15.15;81.58
70851;DHT22;58475;49.662;9.636;2023-08-07T09:06:41;15.43;80.61
70851;DHT22;58475;49.662;9.636;2023-08-07T09:09:08;15.36;79.54
70851;DHT22;58475;49.662;9.636;2023-08-07T09:11:34;15.77;79.83
70851;DHT22;58475;49.662;9.636;2023-08-07T09:14:02;15.91;79.54
70851;DHT22;58475;49.662;9.636;2023-08-07T09:16:29;15.93;78.27
70851;DHT22;58475;49.662;9.636;2023-08-07T09:18:55;16.09;76.93
70851;DHT22;58475;49.662;9.636;2023-08-07T09:21:21;16.18;76.98
70851;DHT22;58475;49.662;9.636;2023-08-07T09:23:46;16.22;75.82
70851;DHT22;58475;49.662;9.636;2023-08-07T09:26:21;16.09;76.30
70851;DHT22;58475;49.662;9.636;2023-08-07T09:28:47;16.11;76.33
70851;DHT22;58475;49.662;9.636;2023-08-07T09:31:15;15.54;77.54
70851;DHT22;58475;49.662;9.636;2023-08-07T09:33:40;15.74;77.98
70851;DHT22;58475;49.662;9.636;2023-08-07T09:36:05;15.50;77.54
70851;DHT22;58475;49.662;9.636;2023-08-07T09:38:31;15.88;77.79
70851;DHT22;58475;49.662;9.636;2023-08-07T09:41:01;15.93;79.21
70851;DHT22;58475;49.662;9.636;2023-08-07T09:43:28;16.21;77.45
70851;DHT22;58475;49.662;9.636;2023-08-07T09:48:29;15.93;77.05
70851;DHT22;58475;49.662;9.636;2023-08-07T09:50:58;16.02;76.94
70851;DHT22;58475;49.662;9.636;2023-08-07T09:53:27;16.05;78.15
70851;DHT22;58475;49.662;9.636;2023-08-07T09:55:55;15.60;79.25
70851;DHT22;58475;49.662;9.636;2023-08-07T09:58:22;15.73;80.02
70851;DHT22;58475;49.662;9.636;2023-08-07T10:00:48;15.60;78.35
70851;DHT22;58475;49.662;9.636;2023-08-07T10:03:14;15.98;78.02
70851;DHT22;58475;49.662;9.636;2023-08-07T10:05:41;15.32;78.82
70851;DHT22;58475;49.662;9.636;2023-08-07T10:08:07;15.81;78.11
70851;DHT22;58475;49.662;9.636;2023-08-07T10:10:33;16.25;77.34
70851;DHT22;58475;49.662;9.636;2023-08-07T10:13:00;16.36;77.29
70851;DHT22;58475;49.662;9.636;2023-08-07T10:15:26;16.18;77.56
70851;DHT22;58475;49.662;9.636;2023-08-07T10:17:52;16.07;78.47
70851;DHT22;58475;49.662;9.636;2023-08-07T10:20:17;16.18;79.00
70851;DHT22;58475;49.662;9.636;2023-08-07T10:22:44;15.88;79.03
70851;DHT22;58475;49.662;9.636;2023-08-07T10:25:10;15.86;78.67
70851;DHT22;58475;49.662;9.636;2023-08-07T10:27:37;15.87;79.01
70851;DHT22;58475;49.662;9.636;2023-08-07T10:30:06;16.02;80.23
70851;DHT22;58475;49.662;9.636;2023-08-07T10:32:33;15.97;78.34
70851;DHT22;58475;49.662;9.636;2023-08-07T10:35:03;16.07;81.19
70851;DHT22;58475;49.662;9.636;2023-08-07T10:37:50;15.50;78.88
70851;DHT22;58475;49.662;9.636;2023-08-07T10:40:15;15.25;79.87
70851;DHT22;58475;49.662;9.636;2023-08-07T10:43:17;15.29;81.35
70851;DHT22;58475;49.662;9.636;2023-08-07T10:45:45;15.06;82.40
70851;DHT22;58475;49.662;9.636;2023-08-07T10:48:11;15.10;83.35
70851;DHT22;58475;49.662;9.636;2023-08-07T10:50:49;15.06;81.91
70851;DHT22;58475;49.662;9.636;2023-08-07T10:53:40;15.08;82.82
70851;DHT22;58475;49.662;9.636;2023-08-07T10:56:09;15.35;81.67
70851;DHT22;58475;49.662;9.636;2023-08-07T10:58:36;15.35;83.02
70851;DHT22;58475;49.662;9.636;2023-08-07T11:01:22;15.47;83.61
70851;DHT22;58475;49.662;9.636;2023-08-07T11:03:58;15.39;81.52
70851;DHT22;58475;49.662;9.636;2023-08-07T11:06:31;15.36;82.29
70851;DHT22;58475;49.662;9.636;2023-08-07T11:09:01;15.20;82.42
70851;DHT22;58475;49.662;9.636;2023-08-07T11:11:29;15.39;81.92
70851;DHT22;58475;49.662;9.636;2023-08-07T11:13:55;15.39;80.71
70851;DHT22;58475;49.662;9.636;2023-08-07T11:16:21;15.49;81.09
70851;DHT22;58475;49.662;9.636;2023-08-07T11:18:47;15.39;82.59
70851;DHT22;58475;49.662;9.636;2023-08-07T11:21:13;15.54;81.06
70851;DHT22;58475;49.662;9.636;2023-08-07T11:23:39;15.28;80.79
70851;DHT22;58475;49.662;9.636;2023-08-07T11:26:05;15.15;80.91
70851;DHT22;58475;49.662;9.636;2023-08-07T11:28:30;15.66;82.10
70851;DHT22;58475;49.662;9.636;2023-08-07T11:30:56;15.40;81.09
70851;DHT22;58475;49.662;9.636;2023-08-07T11:33:26;15.44;81.32
70851;DHT22;58475;49.662;9.636;2023-08-07T11:35:52;15.39;79.92
70851;DHT22;58475;49.662;9.636;2023-08-07T11:38:36;15.50;79.46
70851;DHT22;58475;49.662;9.636;2023-08-07T11:41:03;15.58;79.41
70851;DHT22;58475;49.662;9.636;2023-08-07T11:43:30;15.60;79.33
70851;DHT22;58475;49.662;9.636;2023-08-07T11:46:02;15.73;79.34
70851;DHT22;58475;49.662;9.636;2023-08-07T11:48:29;15.66;79.92
70851;DHT22;58475;49.662;9.636;2023-08-07T11:50:56;15.37;80.47
70851;DHT22;58475;49.662;9.636;2023-08-07T11:53:23;15.40;80.45
70851;DHT22;58475;49.662;9.636;2023-08-07T11:55:56;15.43;81.91
70851;DHT22;58475;49.662;9.636;2023-08-07T11:58:22;15.16;80.83
70851;DHT22;58475;49.662;9.636;2023-08-07T12:00:49;15.18;80.51
70851;DHT22;58475;49.662;9.636;2023-08-07T12:03:28;15.22;81.58
70851;DHT22;58475;49.662;9.636;2023-08-07T12:05:58;15.15;80.73
70851;DHT22;58475;49.662;9.636;2023-08-07T12:08:34;14.95;80.94
70851;DHT22;58475;49.662;9.636;2023-08-07T12:11:07;15.42;81.14
70851;DHT22;58475;49.662;9.636;2023-08-07T12:13:33;15.58;80.49
70851;DHT22;58475;49.662;9.636;2023-08-07T12:16:02;15.73;79.88
70851;DHT22;58475;49.662;9.636;2023-08-07T12:18:31;15.74;80.17
70851;DHT22;58475;49.662;9.636;2023-08-07T12:21:01;15.90;78.99
70851;DHT22;58475;49.662;9.636;2023-08-07T12:23:27;15.87;79.39
70851;DHT22;58475;49.662;9.636;2023-08-07T12:25:53;16.00;78.31
70851;DHT22;58475;49.662;9.636;2023-08-07T12:28:19;16.01;78.87
70851;DHT22;58475;49.662;9.636;2023-08-07T12:30:45;16.11;78.75
70851;DHT22;58475;49.662;9.636;2023-08-07T12:33:12;16.17;78.75
70851;DHT22;58475;49.662;9.636;2023-08-07T12:35:37;15.60;78.04
70851;DHT22;58475;49.662;9.636;2023-08-07T12:38:03;15.73;79.15
70851;DHT22;58475;49.662;9.636;2023-08-07T12:40:30;15.56;79.33
70851;DHT22;58475;49.662;9.636;2023-08-07T12:42:55;15.77;79.07
70851;DHT22;58475;49.662;9.636;2023-08-07T12:45:21;15.71;79.23
70851;DHT22;58475;49.662;9.636;2023-08-07T12:47:46;15.71;78.59
70851;DHT22;58475;49.662;9.636;2023-08-07T12:50:12;16.02;79.57
70851;DHT22;58475;49.662;9.636;2023-08-07T12:52:37;16.17;79.91
70851;DHT22;58475;49.662;9.636;2023-08-07T12:55:03;15.66;78.60
70851;DHT22;58475;49.662;9.636;2023-08-07T12:57:29;15.80;79.33
70851;DHT22;58475;49.662;9.636;2023-08-07T12:59:54;15.70;78.44
70851;DHT22;58475;49.662;9.636;2023-08-07T13:02:20;16.08;78.43
70851;DHT22;58475;49.662;9.636;2023-08-07T13:04:45;16.11;79.71
70851;DHT22;58475;49.662;9.636;2023-08-07T13:07:11;15.71;79.98
70851;DHT22;58475;49.662;9.636;2023-08-07T13:09:37;15.54;79.40
70851;DHT22;58475;49.662;9.636;2023-08-07T13:12:02;15.76;80.03
70851;DHT22;58475;49.662;9.636;2023-08-07T13:14:28;15.87;80.42
70851;DHT22;58475;49.662;9.636;2023-08-07T13:16:53;15.81;78.53
70851;DHT22;58475;49.662;9.636;2023-08-07T13:19:19;15.66;80.53
70851;DHT22;58475;49.662;9.636;2023-08-07T13:21:44;15.87;80.33
70851;DHT22;58475;49.662;9.636;2023-08-07T13:24:09;15.97;79.49
70851;DHT22;58475;49.662;9.636;2023-08-07T13:26:35;16.15;79.38
70851;DHT22;58475;49.662;9.636;2023-08-07T13:29:00;16.08;79.87
70851;DHT22;58475;49.662;9.636;2023-08-07T13:31:25;16.45;79.74
70851;DHT22;58475;49.662;9.636;2023-08-07T13:33:51;16.48;78.19
70851;DHT22;58475;49.662;9.636;2023-08-07T13:36:17;16.53;78.52
70851;DHT22;58475;49.662;9.636;2023-08-07T13:38:42;16.32;77.54
70851;DHT22;58475;49.662;9.636;2023-08-07T13:41:08;16.30;78.17
70851;DHT22;58475;49.662;9.636;2023-08-07T13:43:33;16.25;78.50
70851;DHT22;58475;49.662;9.636;2023-08-07T13:45:58;16.30;78.64
70851;DHT22;58475;49.662;9.636;2023-08-07T13:48:24;16.14;77.89
70851;DHT22;58475;49.662;9.636;2023-08-07T13:50:53;16.45;78.32
70851;DHT22;58475;49.662;9.636;2023-08-07T13:53:19;16.46;76.98
70851;DHT22;58475;49.662;9.636;2023-08-07T13:55:49;16.70;76.75
70851;DHT22;58475;49.662;9.636;2023-08-07T13:58:14;16.83;75.23
70851;DHT22;58475;49.662;9.636;2023-08-07T14:00:43;16.86;74.52
70851;DHT22;58475;49.662;9.636;2023-08-07T14:03:09;17.58;75.02
70851;DHT22;58475;49.662;9.636;2023-08-07T14:05:34;17.42;75.27
70851;DHT22;58475;49.662;9.636;2023-08-07T14:08:00;17.55;75.03
70851;DHT22;58475;49.662;9.636;2023-08-07T14:10:25;17.23;74.63
70851;DHT22;58475;49.662;9.636;2023-08-07T14:12:51;17.14;74.35
70851;DHT22;58475;49.662;9.636;2023-08-07T14:15:16;17.06;75.14
70851;DHT22;58475;49.662;9.636;2023-08-07T14:17:42;17.16;75.56
70851;DHT22;58475;49.662;9.636;2023-08-07T14:20:07;17.59;75.10
70851;DHT22;58475;49.662;9.636;2023-08-07T14:22:33;17.72;71.65
70851;DHT22;58475;49.662;9.636;2023-08-07T14:25:02;18.53;72.90
70851;DHT22;58475;49.662;9.636;2023-08-07T14:27:27;18.20;70.39
70851;DHT22;58475;49.662;9.636;2023-08-07T14:29:52;18.60;70.20
70851;DHT22;58475;49.662;9.636;2023-08-07T14:32:18;18.81;70.68
70851;DHT22;58475;49.662;9.636;2023-08-07T14:34:43;19.08;71.08
70851;DHT22;58475;49.662;9.636;2023-08-07T14:37:08;19.01;67.39
70851;DHT22;58475;49.662;9.636;2023-08-07T14:39:34;18.87;67.79
70851;DHT22;58475;49.662;9.636;2023-08-07T14:41:59;18.91;68.55
70851;DHT22;58475;49.662;9.636;2023-08-07T14:44:24;18.53;67.68
70851;DHT22;58475;49.662;9.636;2023-08-07T14:46:50;18.76;70.20
70851;DHT22;58475;49.662;9.636;2023-08-07T14:49:15;19.16;69.04
70851;DHT22;58475;49.662;9.636;2023-08-07T14:51:41;19.15;67.11
70851;DHT22;58475;49.662;9.636;2023-08-07T14:54:06;19.39;68.61
70851;DHT22;58475;49.662;9.636;2023-08-07T14:56:31;19.40;67.72
70851;DHT22;58475;49.662;9.636;2023-08-07T14:59:00;19.33;66.23
70851;DHT22;58475;49.662;9.636;2023-08-07T15:01:25;19.81;66.47
70851;DHT22;58475;49.662;9.636;2023-08-07T15:03:51;19.70;65.72
70851;DHT22;58475;49.662;9.636;2023-08-07T15:06:16;19.84;65.74
70851;DHT22;58475;49.662;9.636;2023-08-07T15:08:41;19.73;64.74
70851;DHT22;58475;49.662;9.636;2023-08-07T15:11:07;19.66;64.84
70851;DHT22;58475;49.662;9.636;2023-08-07T15:13:32;19.18;65.62
70851;DHT22;58475;49.662;9.636;2023-08-07T15:15:58;19.09;66.09
70851;DHT22;58475;49.662;9.636;2023-08-07T15:18:24;18.69;67.37
70851;DHT22;58475;49.662;9.636;2023-08-07T15:20:49;18.53;67.50
70851;DHT22;58475;49.662;9.636;2023-08-07T15:23:15;18.32;67.82
70851;DHT22;58475;49.662;9.636;2023-08-07T15:25:40;18.47;69.17
70851;DHT22;58475;49.662;9.636;2023-08-07T15:28:07;18.75;68.70
70851;DHT22;58475;49.662;9.636;2023-08-07T15:30:33;19.66;65.44
70851;DHT22;58475;49.662;9.636;2023-08-07T15:32:58;19.88;65.22
70851;DHT22;58475;49.662;9.636;2023-08-07T15:35:23;19.80;65.40